Whitesville, New York
Current Conditions -  °F | °C
As of 5:56 AM on Sunday 21 Dec 2014 (Local Time) from KELZ Reporting Station
Overcast Overcast  
Wind Chill: 18°   Ceiling: 700
Heat Index: 24°   Visibility: 10mi
Dew Point: 21°   Wind: 5mph
Humidity: 88%   Direction: 270°W
Pressure: 30.21"   Gusts: NA
Location:  42.04°N, 77.76°W
Report Text: KELZ 211056Z AUTO 27004KT 10SM OVC007 M04/M06 A3021 RMK AO2 SLP261 I1000 T10441061
Loading
Personal Weather Stations






























Interactive Weather Map New forecast layout! Learn more

10-Day Weather Forecast

Advertisements
Track Severe Weather on mobile